createdAt,value
2022-09-01T00:00:05.764Z,96.10
2022-09-01T00:02:35.402Z,96.50
2022-09-01T00:05:04.583Z,96.70
2022-09-01T00:07:34.583Z,97.10
2022-09-01T00:10:05.934Z,97.10
2022-09-01T00:12:34.271Z,97.60
2022-09-01T00:15:02.464Z,97.70
2022-09-01T00:17:31.165Z,98.00
2022-09-01T00:20:00.823Z,97.80
2022-09-01T00:22:29.717Z,97.50
2022-09-01T00:24:57.819Z,97.70
2022-09-01T00:27:27.907Z,98.00
2022-09-01T00:29:59.290Z,98.30
2022-09-01T00:32:27.692Z,99.00
2022-09-01T00:34:55.863Z,99.60
2022-09-01T00:37:25.369Z,99.90
2022-09-01T00:39:53.487Z,99.90
2022-09-01T00:42:21.855Z,99.90
2022-09-01T00:44:50.711Z,99.90
2022-09-01T00:47:19.251Z,99.90
2022-09-01T00:49:49.934Z,99.90
2022-09-01T00:52:21.792Z,99.90
2022-09-01T00:54:54.427Z,99.90
2022-09-01T00:57:22.951Z,99.90
2022-09-01T00:59:54.745Z,99.90
2022-09-01T01:02:22.972Z,99.90
2022-09-01T01:04:52.712Z,99.90
2022-09-01T01:07:23.312Z,99.90
2022-09-01T01:09:52.893Z,99.90
2022-09-01T01:12:23.797Z,99.90
2022-09-01T01:14:52.428Z,99.90
2022-09-01T01:17:23.008Z,99.90
2022-09-01T01:20:11.011Z,99.90
2022-09-01T01:23:05.313Z,99.90
2022-09-01T01:25:41.892Z,99.90
2022-09-01T01:28:14.223Z,99.90
2022-09-01T01:30:45.559Z,99.90
2022-09-01T01:33:13.782Z,99.90
2022-09-01T01:35:43.743Z,99.90
2022-09-01T01:38:12.112Z,99.90
2022-09-01T01:40:42.219Z,99.90
2022-09-01T01:43:19.953Z,99.90
2022-09-01T01:45:49.099Z,99.90
2022-09-01T01:48:24.416Z,99.90
2022-09-01T01:50:54.891Z,99.90
2022-09-01T01:53:24.351Z,99.90
2022-09-01T01:55:56.120Z,99.90
2022-09-01T01:58:25.667Z,99.90
2022-09-01T02:00:55.844Z,99.90
2022-09-01T02:03:28.914Z,99.90
2022-09-01T02:05:57.042Z,99.90
2022-09-01T02:08:27.536Z,99.90
2022-09-01T02:11:00.133Z,99.90
2022-09-01T02:13:31.229Z,99.90
2022-09-01T02:16:03.234Z,99.90
2022-09-01T02:18:35.708Z,99.90
2022-09-01T02:21:07.066Z,99.90
2022-09-01T02:23:35.653Z,99.90
2022-09-01T02:26:22.295Z,99.90
2022-09-01T02:28:54.878Z,99.90
2022-09-01T02:31:28.874Z,99.90
2022-09-01T02:34:01.062Z,99.90
2022-09-01T02:36:32.774Z,99.90
2022-09-01T02:39:01.167Z,99.90
2022-09-01T02:41:34.396Z,99.90
2022-09-01T02:44:03.950Z,99.90
2022-09-01T02:46:32.410Z,99.90
2022-09-01T02:49:01.599Z,99.90
2022-09-01T02:51:29.819Z,99.90
2022-09-01T02:53:58.531Z,99.90
2022-09-01T02:56:27.469Z,99.90
2022-09-01T02:58:57.392Z,99.90
2022-09-01T03:01:30.035Z,99.90
2022-09-01T03:04:02.920Z,99.90
2022-09-01T03:06:34.458Z,99.90
2022-09-01T03:09:04.513Z,99.90
2022-09-01T03:11:34.941Z,99.90
2022-09-01T03:14:05.854Z,99.90
2022-09-01T03:16:34.293Z,99.90
2022-09-01T03:19:04.183Z,99.90
2022-09-01T03:21:32.584Z,99.90
2022-09-01T03:24:02.082Z,99.90
2022-09-01T03:26:31.424Z,99.90
2022-09-01T03:29:00.184Z,99.90
2022-09-01T03:31:31.141Z,99.90
2022-09-01T03:34:03.312Z,99.90
2022-09-01T03:36:35.120Z,99.90
2022-09-01T03:39:03.757Z,99.90
2022-09-01T03:41:33.679Z,99.90
2022-09-01T03:44:01.774Z,99.90
2022-09-01T03:46:36.958Z,99.90
2022-09-01T03:49:08.066Z,99.90
2022-09-01T03:51:39.342Z,99.90
2022-09-01T03:54:09.125Z,99.90
2022-09-01T03:56:41.051Z,99.90
2022-09-01T03:59:16.759Z,99.90
2022-09-01T04:01:47.916Z,99.90
2022-09-01T04:04:17.183Z,99.90
2022-09-01T04:06:47.053Z,99.90
2022-09-01T04:09:16.248Z,99.90
2022-09-01T04:11:46.983Z,99.90
2022-09-01T04:14:17.564Z,99.90
2022-09-01T04:17:06.545Z,99.90
2022-09-01T04:19:39.547Z,99.90
2022-09-01T04:22:14.389Z,99.90
2022-09-01T04:24:45.827Z,99.90
2022-09-01T04:27:17.987Z,99.90
2022-09-01T04:29:47.005Z,99.90
2022-09-01T04:32:17.039Z,99.90
2022-09-01T04:34:48.735Z,99.90
2022-09-01T04:37:20.313Z,99.90
2022-09-01T04:39:56.074Z,99.90
2022-09-01T04:42:27.213Z,99.90
2022-09-01T04:44:57.491Z,99.90
2022-09-01T04:47:35.651Z,99.90
2022-09-01T04:50:13.853Z,99.90
2022-09-01T04:52:45.963Z,99.90
2022-09-01T04:55:31.690Z,99.90
2022-09-01T04:58:06.050Z,99.90
2022-09-01T05:00:38.802Z,99.90
2022-09-01T05:03:10.253Z,99.90
2022-09-01T05:06:03.662Z,99.90
2022-09-01T05:08:35.285Z,99.90
2022-09-01T05:11:08.007Z,99.90
2022-09-01T05:13:43.400Z,99.90
2022-09-01T05:16:15.139Z,99.90
2022-09-01T05:18:48.982Z,99.90
2022-09-01T05:21:22.129Z,97.60
2022-09-01T05:23:51.702Z,94.80
2022-09-01T05:26:23.856Z,92.50
2022-09-01T05:28:54.943Z,92.70
2022-09-01T05:31:24.303Z,93.00
2022-09-01T05:33:53.811Z,92.30
2022-09-01T05:36:25.106Z,93.10
2022-09-01T05:38:57.554Z,91.40
2022-09-01T05:41:25.665Z,92.80
2022-09-01T05:43:59.478Z,93.30
2022-09-01T05:46:30.033Z,91.00
2022-09-01T05:49:00.447Z,89.90
2022-09-01T05:51:46.218Z,89.50
2022-09-01T05:54:23.040Z,90.80
2022-09-01T05:56:53.500Z,99.90
2022-09-01T05:59:26.094Z,99.90
2022-09-01T06:02:00.481Z,99.90
2022-09-01T06:04:31.018Z,99.90
2022-09-01T06:07:09.623Z,99.90
2022-09-01T06:09:46.875Z,99.90
2022-09-01T06:12:23.891Z,99.90
2022-09-01T06:14:54.816Z,99.90
2022-09-01T06:17:25.796Z,99.90
2022-09-01T06:19:58.942Z,99.90
2022-09-01T06:22:29.357Z,99.90
2022-09-01T06:25:02.605Z,99.90
2022-09-01T06:27:40.744Z,99.90
2022-09-01T06:30:14.955Z,99.90
2022-09-01T06:32:49.569Z,99.90
2022-09-01T06:35:19.641Z,99.90
2022-09-01T06:37:49.547Z,99.90
2022-09-01T06:40:35.486Z,99.90
2022-09-01T06:43:07.955Z,99.90
2022-09-01T06:45:42.123Z,99.90
2022-09-01T06:48:16.576Z,99.90
2022-09-01T06:53:35.706Z,99.90
2022-09-01T06:56:08.972Z,99.90
2022-09-01T06:58:38.221Z,99.90
2022-09-01T07:01:15.916Z,99.90
2022-09-01T07:03:45.118Z,99.90
2022-09-01T07:12:27.666Z,99.90
2022-09-01T07:17:50.114Z,99.90
2022-09-01T07:20:25.399Z,99.90
2022-09-01T07:23:06.439Z,99.90
2022-09-01T07:26:01.082Z,99.90
2022-09-01T07:39:55.438Z,99.90
2022-09-01T07:42:30.581Z,99.90
2022-09-01T07:42:31.866Z,99.90
2022-09-01T07:43:12.937Z,99.90
2022-09-01T07:46:00.942Z,99.90
2022-09-01T07:51:37.912Z,99.90
2022-09-01T07:54:07.771Z,99.90
2022-09-01T07:56:40.130Z,99.90
2022-09-01T07:59:14.943Z,99.90
2022-09-01T08:02:05.690Z,99.90
2022-09-01T08:04:34.479Z,99.90
2022-09-01T08:07:03.112Z,99.40
2022-09-01T08:09:37.638Z,99.40
2022-09-01T08:12:09.684Z,99.70
2022-09-01T08:14:41.468Z,99.30
2022-09-01T08:17:18.353Z,99.00
2022-09-01T08:20:01.248Z,99.10
2022-09-01T08:22:55.512Z,98.80
2022-09-01T08:25:37.311Z,98.20
2022-09-01T08:28:08.022Z,97.80
2022-09-01T08:30:36.711Z,97.30
2022-09-01T08:33:12.927Z,96.70
2022-09-01T08:35:49.309Z,96.90
2022-09-01T08:38:18.621Z,96.80
2022-09-01T08:40:56.398Z,95.90
2022-09-01T08:43:49.047Z,95.90
2022-09-01T08:46:25.504Z,95.30
2022-09-01T08:52:12.983Z,94.10
2022-09-01T08:54:46.902Z,93.40
2022-09-01T08:57:19.420Z,92.60
2022-09-01T09:00:24.375Z,92.40
2022-09-01T09:03:07.412Z,91.30
2022-09-01T09:05:47.939Z,91.30
2022-09-01T09:08:34.735Z,91.30
2022-09-01T09:11:07.639Z,90.60
2022-09-01T09:13:48.934Z,90.10
2022-09-01T09:16:23.028Z,90.10
2022-09-01T09:18:55.679Z,88.90
2022-09-01T09:21:30.056Z,87.70
2022-09-01T09:24:04.339Z,86.90
2022-09-01T09:26:47.837Z,87.30
2022-09-01T09:29:16.006Z,86.20
2022-09-01T09:31:49.956Z,85.10
2022-09-01T09:34:32.491Z,82.40
2022-09-01T09:37:17.815Z,82.40
2022-09-01T09:39:45.928Z,82.10
2022-09-01T09:42:16.053Z,82.70
2022-09-01T09:44:49.206Z,81.50
2022-09-01T09:47:46.279Z,81.20
2022-09-01T09:50:26.272Z,79.10
2022-09-01T09:53:10.635Z,79.00
2022-09-01T09:55:55.398Z,80.60
2022-09-01T09:58:26.523Z,79.70
2022-09-01T10:01:03.999Z,80.70
2022-09-01T10:03:41.987Z,78.70
2022-09-01T10:06:32.238Z,77.90
2022-09-01T10:09:01.861Z,76.60
2022-09-01T10:11:35.885Z,75.30
2022-09-01T10:14:08.119Z,72.60
2022-09-01T10:16:40.032Z,71.60
2022-09-01T10:19:14.082Z,68.80
2022-09-01T10:21:46.040Z,67.30
2022-09-01T10:24:21.386Z,65.60
2022-09-01T10:26:54.959Z,64.90
2022-09-01T10:29:27.002Z,64.00
2022-09-01T10:32:28.159Z,62.60
2022-09-01T10:34:47.559Z,62.10
2022-09-01T10:37:16.335Z,61.80
2022-09-01T10:40:21.075Z,60.90
2022-09-01T10:42:55.259Z,59.70
2022-09-01T10:45:35.084Z,59.90
2022-09-01T10:48:52.041Z,58.60
2022-09-01T10:51:51.496Z,58.10
2022-09-01T10:54:55.501Z,58.40
2022-09-01T10:57:45.529Z,57.70
2022-09-01T11:03:47.857Z,57.40
2022-09-01T11:07:13.107Z,58.80
2022-09-01T11:09:43.487Z,57.60
2022-09-01T11:12:40.082Z,56.10
2022-09-01T11:15:36.379Z,55.90
2022-09-01T11:18:11.754Z,55.50
2022-09-01T11:20:41.698Z,54.50
2022-09-01T11:23:14.928Z,54.80
2022-09-01T11:25:44.762Z,54.40
2022-09-01T11:28:46.043Z,55.40
2022-09-01T11:31:34.087Z,54.90
2022-09-01T11:34:28.215Z,54.90
2022-09-01T11:37:00.318Z,55.20
2022-09-01T11:39:44.016Z,54.20
2022-09-01T11:42:19.043Z,54.50
2022-09-01T11:44:52.859Z,54.30
2022-09-01T11:47:26.693Z,53.00
2022-09-01T11:49:57.882Z,54.10
2022-09-01T11:52:30.079Z,53.10
2022-09-01T11:55:00.806Z,52.60
2022-09-01T11:57:32.003Z,51.80
2022-09-01T12:00:02.183Z,53.90
2022-09-01T12:02:45.701Z,53.10
2022-09-01T12:05:28.692Z,52.90
2022-09-01T12:07:57.805Z,52.40
2022-09-01T12:10:33.519Z,52.90
2022-09-01T12:13:05.340Z,53.20
2022-09-01T12:15:35.026Z,54.00
2022-09-01T12:18:19.162Z,53.40
2022-09-01T12:23:24.164Z,53.10
2022-09-01T12:25:55.745Z,52.20
2022-09-01T12:28:25.876Z,53.30
2022-09-01T12:31:00.382Z,53.00
2022-09-01T12:33:29.168Z,52.80
2022-09-01T12:36:14.608Z,53.60
2022-09-01T12:38:42.713Z,53.10
2022-09-01T12:41:28.988Z,54.10
2022-09-01T12:43:57.331Z,52.40
2022-09-01T12:46:46.612Z,52.80
2022-09-01T12:49:19.934Z,55.00
2022-09-01T12:51:48.740Z,53.20
2022-09-01T12:54:17.340Z,52.30
2022-09-01T12:56:51.950Z,53.30
2022-09-01T12:59:31.992Z,55.20
2022-09-01T13:02:27.583Z,55.70
2022-09-01T13:04:56.351Z,55.70
2022-09-01T13:07:24.523Z,54.30
2022-09-01T13:09:52.722Z,54.70
2022-09-01T13:12:22.918Z,53.70
2022-09-01T13:14:51.358Z,53.30
2022-09-01T13:17:20.875Z,54.60
2022-09-01T13:19:48.954Z,54.30
2022-09-01T13:22:17.023Z,54.60
2022-09-01T13:24:45.106Z,55.30
2022-09-01T13:27:22.521Z,55.10
2022-09-01T13:29:52.819Z,56.90
2022-09-01T13:32:22.709Z,54.40
2022-09-01T13:34:52.399Z,55.50
2022-09-01T13:37:21.680Z,55.30
2022-09-01T13:39:50.228Z,55.70
2022-09-01T13:42:19.360Z,56.80
2022-09-01T13:44:52.582Z,55.90
2022-09-01T13:47:29.587Z,55.00
2022-09-01T13:50:07.853Z,55.00
2022-09-01T13:52:37.176Z,56.10
2022-09-01T13:55:06.115Z,55.40
2022-09-01T13:57:36.474Z,55.40
2022-09-01T14:00:07.678Z,55.70
2022-09-01T14:02:40.488Z,55.70
2022-09-01T14:05:09.673Z,55.90
2022-09-01T14:07:37.776Z,56.90
2022-09-01T14:10:07.536Z,56.40
2022-09-01T14:12:36.099Z,56.50
2022-09-01T14:15:15.917Z,56.40
2022-09-01T14:17:47.726Z,55.90
2022-09-01T14:20:19.511Z,55.90
2022-09-01T14:22:47.836Z,56.70
2022-09-01T14:25:16.963Z,55.40
2022-09-01T14:27:45.834Z,55.80
2022-09-01T14:30:19.216Z,56.50
2022-09-01T14:32:49.515Z,56.20
2022-09-01T14:35:19.235Z,55.60
2022-09-01T14:37:47.695Z,56.30
2022-09-01T14:40:18.236Z,55.90
2022-09-01T14:42:49.110Z,57.00
2022-09-01T14:45:18.542Z,57.60
2022-09-01T14:47:51.635Z,57.60
2022-09-01T14:50:22.975Z,57.60
2022-09-01T14:52:54.064Z,58.30
2022-09-01T14:55:23.400Z,57.30
2022-09-01T14:57:52.222Z,56.80
2022-09-01T15:00:21.120Z,56.60
2022-09-01T15:02:50.632Z,56.50
2022-09-01T15:05:18.801Z,56.60
2022-09-01T15:07:46.929Z,55.70
2022-09-01T15:10:24.374Z,56.50
2022-09-01T15:12:54.974Z,56.20
2022-09-01T15:15:23.639Z,56.60
2022-09-01T15:17:53.422Z,57.80
2022-09-01T15:20:53.983Z,57.50
2022-09-01T15:23:24.460Z,57.50
2022-09-01T15:25:54.940Z,57.70
2022-09-01T15:28:23.620Z,57.60
2022-09-01T15:30:54.262Z,57.90
2022-09-01T15:33:24.027Z,58.30
2022-09-01T15:35:52.131Z,58.50
2022-09-01T15:38:24.987Z,57.40
2022-09-01T15:40:58.493Z,57.90
2022-09-01T15:43:27.834Z,58.70
2022-09-01T15:45:58.178Z,58.80
2022-09-01T15:48:29.236Z,59.50
2022-09-01T15:51:23.247Z,59.40
2022-09-01T15:53:51.971Z,60.10
2022-09-01T15:56:20.260Z,60.00
2022-09-01T15:59:00.701Z,60.10
2022-09-01T16:01:32.078Z,59.10
2022-09-01T16:04:02.211Z,59.60
2022-09-01T16:06:30.934Z,59.10
2022-09-01T16:08:59.271Z,59.80
2022-09-01T16:11:28.615Z,59.40
2022-09-01T16:13:57.236Z,60.00
2022-09-01T16:16:42.590Z,59.90
2022-09-01T16:19:22.621Z,60.70
2022-09-01T16:21:55.683Z,59.50
2022-09-01T16:24:25.152Z,59.10
2022-09-01T16:26:53.556Z,59.00
2022-09-01T16:29:29.673Z,59.40
2022-09-01T16:31:57.853Z,59.00
2022-09-01T16:34:28.614Z,58.60
2022-09-01T16:37:02.669Z,59.20
2022-09-01T16:39:35.763Z,59.10
2022-09-01T16:42:14.116Z,59.00
2022-09-01T16:44:54.671Z,58.70
2022-09-01T16:47:43.126Z,59.60
2022-09-01T16:50:21.831Z,59.60
2022-09-01T16:53:10.911Z,59.40
2022-09-01T16:55:52.303Z,60.00
2022-09-01T16:58:24.183Z,59.70
2022-09-01T17:01:02.760Z,59.90
2022-09-01T17:03:42.526Z,60.10
2022-09-01T17:06:21.669Z,60.50
2022-09-01T17:08:54.858Z,60.60
2022-09-01T17:11:33.398Z,60.70
2022-09-01T17:14:02.908Z,60.80
2022-09-01T17:16:37.190Z,61.40
2022-09-01T17:19:07.828Z,61.70
2022-09-01T17:21:42.048Z,61.40
2022-09-01T17:24:22.555Z,61.70
2022-09-01T17:26:52.707Z,62.20
2022-09-01T17:29:27.187Z,62.30
2022-09-01T17:32:03.680Z,63.30
2022-09-01T17:34:38.767Z,61.40
2022-09-01T17:37:20.580Z,61.20
2022-09-01T17:39:59.720Z,61.10
2022-09-01T17:42:33.608Z,60.90
2022-09-01T17:45:13.061Z,61.70
2022-09-01T17:47:53.704Z,61.10
2022-09-01T17:50:26.732Z,61.20
2022-09-01T17:53:10.036Z,61.50
2022-09-01T17:55:46.622Z,61.70
2022-09-01T17:58:28.606Z,61.60
2022-09-01T18:01:02.354Z,61.50
2022-09-01T18:03:49.223Z,61.70
2022-09-01T18:06:28.467Z,62.30
2022-09-01T18:08:59.243Z,62.10
2022-09-01T18:11:38.587Z,61.70
2022-09-01T18:14:13.327Z,62.20
2022-09-01T18:17:01.613Z,62.00
2022-09-01T18:19:37.435Z,61.50
2022-09-01T18:22:09.583Z,62.00
2022-09-01T18:24:48.976Z,62.00
2022-09-01T18:27:17.135Z,61.90
2022-09-01T18:29:46.924Z,62.20
2022-09-01T18:32:30.806Z,62.10
2022-09-01T18:35:13.345Z,62.50
2022-09-01T18:38:03.423Z,62.70
2022-09-01T18:40:36.749Z,63.00
2022-09-01T18:43:10.360Z,63.10
2022-09-01T18:45:48.971Z,63.10
2022-09-01T18:48:26.274Z,63.30
2022-09-01T18:51:01.531Z,63.80
2022-09-01T18:53:41.914Z,63.50
2022-09-01T18:56:20.000Z,63.60
2022-09-01T18:59:02.931Z,63.80
2022-09-01T19:01:35.896Z,64.20
2022-09-01T19:04:11.813Z,64.30
2022-09-01T19:06:53.387Z,64.50
2022-09-01T19:09:29.446Z,64.70
2022-09-01T19:12:13.958Z,65.10
2022-09-01T19:14:49.313Z,65.00
2022-09-01T19:17:39.578Z,65.20
2022-09-01T19:20:12.334Z,65.50
2022-09-01T19:22:48.651Z,65.80
2022-09-01T19:25:36.652Z,66.20
2022-09-01T19:28:14.988Z,66.50
2022-09-01T19:30:48.001Z,66.70
2022-09-01T19:33:21.315Z,66.80
2022-09-01T19:35:52.046Z,67.20
2022-09-01T19:38:27.591Z,67.40
2022-09-01T19:41:04.719Z,67.80
2022-09-01T19:43:38.720Z,68.00
2022-09-01T19:46:18.661Z,68.30
2022-09-01T19:48:52.355Z,68.60
2022-09-01T19:51:25.261Z,69.10
2022-09-01T19:54:01.178Z,69.20
2022-09-01T19:56:34.797Z,69.50
2022-09-01T19:59:15.955Z,69.90
2022-09-01T20:01:48.752Z,70.00
2022-09-01T20:04:26.879Z,70.20
2022-09-01T20:07:00.375Z,70.40
2022-09-01T20:09:38.123Z,70.50
2022-09-01T20:12:17.720Z,70.80
2022-09-01T20:15:08.527Z,71.30
2022-09-01T20:17:43.879Z,71.70
2022-09-01T20:20:13.693Z,72.10
2022-09-01T20:22:51.195Z,72.20
2022-09-01T20:25:21.919Z,72.60
2022-09-01T20:27:56.410Z,72.90
2022-09-01T20:30:31.207Z,73.20
2022-09-01T20:33:04.900Z,73.30
2022-09-01T20:35:39.936Z,73.50
2022-09-01T20:38:35.276Z,73.90
2022-09-01T20:41:12.631Z,74.10
2022-09-01T20:43:44.770Z,74.30
2022-09-01T20:46:19.985Z,74.50
2022-09-01T20:48:48.868Z,74.80
2022-09-01T20:51:32.319Z,75.10
2022-09-01T20:54:21.001Z,75.50
2022-09-01T20:56:53.619Z,75.90
2022-09-01T20:59:37.232Z,76.30
2022-09-01T21:02:19.706Z,76.60
2022-09-01T21:04:57.357Z,76.90
2022-09-01T21:07:32.917Z,77.40
2022-09-01T21:10:09.525Z,77.80
2022-09-01T21:12:42.422Z,78.10
2022-09-01T21:15:20.708Z,78.70
2022-09-01T21:17:58.280Z,79.40
2022-09-01T21:20:36.187Z,79.80
2022-09-01T21:23:06.565Z,80.50
2022-09-01T21:25:35.120Z,81.20
2022-09-01T21:28:06.666Z,81.60
2022-09-01T21:30:36.125Z,82.20
2022-09-01T21:33:06.219Z,82.50
2022-09-01T21:35:34.335Z,83.30
2022-09-01T21:38:02.450Z,83.70
2022-09-01T21:40:30.869Z,83.90
2022-09-01T21:43:02.751Z,84.50
2022-09-01T21:45:34.455Z,85.10
2022-09-01T21:48:03.265Z,86.60
2022-09-01T21:50:32.800Z,86.50
2022-09-01T21:53:01.136Z,87.30
2022-09-01T21:55:29.259Z,88.20
2022-09-01T21:57:57.479Z,87.50
2022-09-01T22:00:29.866Z,88.90
2022-09-01T22:02:59.460Z,89.00
2022-09-01T22:05:41.396Z,88.60
2022-09-01T22:08:12.126Z,89.90
2022-09-01T22:10:44.669Z,89.20
2022-09-01T22:13:13.778Z,89.60
2022-09-01T22:15:44.155Z,88.80
2022-09-01T22:18:12.825Z,89.80
2022-09-01T22:20:42.746Z,90.30
2022-09-01T22:23:11.585Z,90.10
2022-09-01T22:25:42.951Z,90.00
2022-09-01T22:28:11.663Z,90.20
2022-09-01T22:30:45.327Z,89.80
2022-09-01T22:33:13.534Z,90.10
2022-09-01T22:35:44.168Z,90.50
2022-09-01T22:38:12.569Z,90.30
2022-09-01T22:40:45.391Z,90.50
2022-09-01T22:43:16.599Z,90.70
2022-09-01T22:45:46.824Z,91.00
2022-09-01T22:48:15.399Z,91.90
2022-09-01T22:50:46.323Z,91.60
2022-09-01T22:53:15.679Z,91.80
2022-09-01T22:55:46.299Z,91.90
2022-09-01T22:58:15.474Z,92.10
2022-09-01T23:00:46.177Z,92.20
2022-09-01T23:03:14.836Z,92.70
2022-09-01T23:05:44.839Z,92.80
2022-09-01T23:08:12.984Z,93.70
2022-09-01T23:10:41.556Z,94.00
2022-09-01T23:13:09.871Z,93.40
2022-09-01T23:15:38.143Z,94.00
2022-09-01T23:18:06.845Z,94.70
2022-09-01T23:20:35.774Z,99.90
2022-09-01T23:23:05.858Z,99.90
2022-09-01T23:25:34.037Z,97.60
2022-09-01T23:28:02.181Z,99.20
2022-09-01T23:30:30.285Z,99.90
2022-09-01T23:32:58.808Z,99.90
2022-09-01T23:35:26.923Z,99.90
2022-09-01T23:37:55.148Z,99.90
2022-09-01T23:40:24.760Z,99.90
2022-09-01T23:42:52.895Z,99.90
2022-09-01T23:45:21.310Z,99.90
2022-09-01T23:47:49.379Z,99.90
2022-09-01T23:50:17.638Z,99.90
2022-09-01T23:52:45.915Z,99.90
2022-09-01T23:55:14.147Z,99.90
2022-09-01T23:57:43.736Z,99.90
